Weather at Parma Airport

Public forecast

Using degrees Celsius for public forecast. Weather courtesy of forecast.io.

Current aviation weather report (METAR) for Parma Airport

Retrieved 2020/09/23 17:50 UTC (38 minutes ago):

LIMP 231750Z 22006KT CAVOK 22/16 Q1009

Aviation forecast (TAF) for Parma Airport

Retrieved 2020/09/23 18:21 UTC (7 minutes ago):

TAF LIMP 231700Z 2318/2418 VRB05KT 9999 SCT040 PROB40 TEMPO 2412/2418 4000 TSRA